Time;durP1;ratioP1;P1;durP2;ratioP2;P2;SDS_P1;SDS_P2;PMS_P1;PMS_P2;Temp;Humidity;BMP_temperature;BMP_pressure;BME280_temperature;BME280_humidity;BME280_pressure;Samples;Min_cycle;Max_cycle;Signal;HPM_P1;HPM_P2
2022/04/16 00:01:04;;;;;;;10.05;6.07;;;;;;;;;;4987872;28;20125;-75
2022/04/16 00:03:33;;;;;;;9.93;5.85;;;;;;;;;;4984990;28;20124;-75
2022/04/16 00:06:01;;;;;;;12.20;6.85;;;;;;;;;;4984158;28;20427;-75
2022/04/16 00:08:30;;;;;;;10.90;6.53;;;;;;;;;;4986549;28;20426;-75
2022/04/16 00:11:00;;;;;;;10.77;5.95;;;;;;;;;;4988253;28;20100;-75
2022/04/16 00:13:29;;;;;;;11.48;6.40;;;;;;;;;;4986960;28;20110;-75
2022/04/16 00:15:57;;;;;;;10.90;6.63;;;;;;;;;;4986643;28;20046;-76
2022/04/16 00:18:25;;;;;;;8.82;6.07;;;;;;;;;;4988282;28;20034;-75
2022/04/16 00:20:53;;;;;;;11.18;5.85;;;;;;;;;;4972804;28;20039;-75
2022/04/16 00:23:21;;;;;;;9.98;6.10;;;;;;;;;;4986876;28;20042;-75
2022/04/16 00:25:49;;;;;;;9.52;6.03;;;;;;;;;;4971134;28;20503;-75
2022/04/16 00:28:17;;;;;;;9.35;5.32;;;;;;;;;;4988166;28;20042;-75
2022/04/16 00:30:44;;;;;;;6.20;4.82;;;;;;;;;;4986564;28;20070;-75
2022/04/16 00:33:12;;;;;;;7.05;4.75;;;;;;;;;;4991922;28;20045;-75
2022/04/16 00:35:43;;;;;;;5.72;4.53;;;;;;;;;;4987148;28;20046;-75
2022/04/16 00:38:11;;;;;;;5.25;3.90;;;;;;;;;;4972076;28;20035;-75
2022/04/16 00:40:39;;;;;;;4.30;3.90;;;;;;;;;;4986575;28;20042;-75
2022/04/16 00:43:06;;;;;;;5.63;4.00;;;;;;;;;;4989717;28;20049;-75
2022/04/16 00:45:34;;;;;;;4.78;4.05;;;;;;;;;;4964383;28;20101;-75
2022/04/16 00:48:04;;;;;;;4.30;3.58;;;;;;;;;;4967688;28;20415;-76
2022/04/16 00:50:32;;;;;;;5.38;4.32;;;;;;;;;;4986508;28;20081;-75
2022/04/16 00:52:59;;;;;;;3.35;3.05;;;;;;;;;;4987351;28;20034;-75
2022/04/16 00:55:27;;;;;;;3.28;2.97;;;;;;;;;;4988044;28;20498;-75
2022/04/16 00:57:55;;;;;;;3.47;3.15;;;;;;;;;;4987378;28;20035;-75
2022/04/16 01:00:22;;;;;;;3.40;3.03;;;;;;;;;;4987442;28;20117;-75
2022/04/16 01:02:50;;;;;;;4.10;3.30;;;;;;;;;;4985279;28;20049;-75
2022/04/16 01:05:19;;;;;;;3.85;3.40;;;;;;;;;;4988863;28;20446;-75
2022/04/16 01:07:58;;;;;;;3.40;3.10;;;;;;;;;;4972678;28;20042;-76
2022/04/16 01:10:27;;;;;;;3.22;2.95;;;;;;;;;;4992153;28;20050;-75
2022/04/16 01:12:55;;;;;;;2.75;2.58;;;;;;;;;;4991189;28;20048;-76
2022/04/16 01:15:23;;;;;;;2.75;2.55;;;;;;;;;;4972406;28;20423;-75
2022/04/16 01:17:51;;;;;;;3.15;2.95;;;;;;;;;;4952049;28;20069;-75
2022/04/16 01:20:19;;;;;;;3.35;3.10;;;;;;;;;;4991446;28;20057;-75
2022/04/16 01:22:47;;;;;;;2.95;2.70;;;;;;;;;;4994337;28;20057;-75
2022/04/16 01:25:15;;;;;;;3.17;2.88;;;;;;;;;;4988339;28;20137;-75
2022/04/16 01:27:48;;;;;;;2.92;2.72;;;;;;;;;;4988360;28;20127;-75
2022/04/16 01:30:18;;;;;;;2.85;2.65;;;;;;;;;;4986472;28;20106;-75
2022/04/16 01:32:46;;;;;;;3.20;2.83;;;;;;;;;;4988783;28;20329;-76
2022/04/16 01:35:14;;;;;;;2.78;2.60;;;;;;;;;;4989099;28;20051;-76
2022/04/16 01:37:41;;;;;;;2.88;2.70;;;;;;;;;;4990264;28;20038;-75
2022/04/16 01:40:10;;;;;;;2.40;2.20;;;;;;;;;;4990104;28;20046;-75
2022/04/16 01:42:40;;;;;;;2.92;2.72;;;;;;;;;;4990053;28;20046;-75
2022/04/16 01:45:11;;;;;;;3.28;2.80;;;;;;;;;;4990229;28;20068;-76
2022/04/16 01:47:39;;;;;;;2.90;2.70;;;;;;;;;;4988879;28;20042;-75
2022/04/16 01:50:08;;;;;;;2.88;2.67;;;;;;;;;;4989808;28;20510;-75
2022/04/16 01:52:36;;;;;;;2.95;2.75;;;;;;;;;;4989579;28;20520;-75
2022/04/16 01:55:04;;;;;;;3.33;3.03;;;;;;;;;;4989186;28;20038;-75
2022/04/16 01:57:31;;;;;;;2.75;2.55;;;;;;;;;;4971042;28;20053;-75
2022/04/16 01:59:58;;;;;;;3.13;2.85;;;;;;;;;;4989827;28;20043;-75
2022/04/16 02:02:26;;;;;;;2.67;2.58;;;;;;;;;;4988832;28;20042;-76
2022/04/16 02:04:53;;;;;;;2.83;2.63;;;;;;;;;;5004786;28;20038;-75
2022/04/16 02:07:21;;;;;;;2.97;2.70;;;;;;;;;;4989760;28;20064;-75
2022/04/16 02:09:48;;;;;;;2.70;2.60;;;;;;;;;;4990389;28;20050;-75
2022/04/16 02:12:15;;;;;;;3.38;3.10;;;;;;;;;;4976478;28;20046;-76
2022/04/16 02:14:43;;;;;;;3.15;2.95;;;;;;;;;;4990274;28;20057;-76
2022/04/16 02:17:10;;;;;;;2.92;2.72;;;;;;;;;;4992919;28;20313;-75
2022/04/16 02:19:38;;;;;;;2.80;2.60;;;;;;;;;;4988924;28;20043;-76
2022/04/16 02:22:06;;;;;;;4.47;2.60;;;;;;;;;;4994017;28;20045;-75
2022/04/16 02:24:33;;;;;;;4.45;3.20;;;;;;;;;;4989595;28;20417;-75
2022/04/16 02:27:00;;;;;;;3.08;2.88;;;;;;;;;;4994711;28;20228;-75
2022/04/16 02:29:28;;;;;;;3.20;3.00;;;;;;;;;;4995192;28;20066;-76
2022/04/16 02:31:55;;;;;;;3.00;2.80;;;;;;;;;;4988984;28;20065;-75
2022/04/16 02:34:23;;;;;;;5.05;3.05;;;;;;;;;;4989074;28;20129;-75
2022/04/16 02:36:50;;;;;;;3.10;2.90;;;;;;;;;;4991407;28;20498;-75
2022/04/16 02:39:17;;;;;;;2.90;2.70;;;;;;;;;;4989394;28;20050;-75
2022/04/16 02:41:45;;;;;;;3.10;2.90;;;;;;;;;;4989054;28;20069;-75
2022/04/16 02:47:05;;;;;;;2.75;2.65;;;;;;;;;;4989011;28;20109;-75
2022/04/16 02:47:05;;;;;;;2.88;2.67;;;;;;;;;;4971710;28;20116;-75
2022/04/16 02:49:34;;;;;;;3.00;2.80;;;;;;;;;;4989096;28;20157;-75
2022/04/16 02:52:01;;;;;;;2.80;2.60;;;;;;;;;;4970794;28;20050;-75
2022/04/16 02:54:29;;;;;;;3.65;3.35;;;;;;;;;;4988608;28;20282;-75
2022/04/16 02:56:56;;;;;;;3.10;2.90;;;;;;;;;;4990318;28;20038;-75
2022/04/16 02:59:24;;;;;;;3.20;2.90;;;;;;;;;;4988559;28;20042;-75
2022/04/16 03:01:52;;;;;;;3.10;2.90;;;;;;;;;;4987883;28;20042;-75
2022/04/16 03:04:19;;;;;;;3.00;2.80;;;;;;;;;;5004867;28;20121;-75
2022/04/16 03:06:47;;;;;;;3.10;2.90;;;;;;;;;;4987428;28;20129;-75
2022/04/16 03:09:14;;;;;;;2.88;2.67;;;;;;;;;;4988591;28;20137;-75
2022/04/16 03:11:41;;;;;;;3.03;2.85;;;;;;;;;;5001440;28;20381;-75
2022/04/16 03:19:41;;;;;;;2.97;2.78;;;;;;;;;;4989087;28;20088;-75
2022/04/16 03:22:08;;;;;;;3.70;3.40;;;;;;;;;;4988356;28;20050;-75
2022/04/16 03:24:35;;;;;;;3.08;2.88;;;;;;;;;;4988348;28;20042;-75
2022/04/16 03:27:03;;;;;;;2.92;2.72;;;;;;;;;;4987741;28;20050;-75
2022/04/16 03:29:32;;;;;;;2.92;2.72;;;;;;;;;;4970368;28;20070;-75
2022/04/16 03:31:59;;;;;;;3.10;2.90;;;;;;;;;;4983833;28;20057;-75
2022/04/16 03:34:26;;;;;;;2.97;2.78;;;;;;;;;;4988302;28;20145;-75
2022/04/16 03:36:54;;;;;;;2.80;2.60;;;;;;;;;;4976593;28;20034;-75
2022/04/16 03:42:18;;;;;;;2.75;2.65;;;;;;;;;;5026904;28;20045;-80
2022/04/16 03:44:45;;;;;;;2.97;2.72;;;;;;;;;;5041392;28;20059;-80
2022/04/16 03:47:12;;;;;;;3.30;3.10;;;;;;;;;;5042394;28;20068;-80
2022/04/16 03:49:40;;;;;;;3.40;3.20;;;;;;;;;;5031776;28;20105;-80
2022/04/16 03:52:08;;;;;;;4.20;3.20;;;;;;;;;;5049029;28;20064;-81
2022/04/16 04:00:09;;;;;;;3.22;3.03;;;;;;;;;;5048141;28;20127;-81
2022/04/16 04:02:39;;;;;;;2.95;2.85;;;;;;;;;;4992406;28;20051;-80
2022/04/16 04:05:07;;;;;;;3.22;3.03;;;;;;;;;;5028481;28;20254;-80
2022/04/16 04:07:34;;;;;;;3.40;3.20;;;;;;;;;;5035068;28;20392;-80
2022/04/16 04:10:02;;;;;;;3.15;2.95;;;;;;;;;;5052024;28;20068;-80
2022/04/16 04:12:31;;;;;;;2.60;2.50;;;;;;;;;;5031301;28;20052;-80
2022/04/16 04:14:59;;;;;;;3.00;2.80;;;;;;;;;;5050499;28;20577;-80
2022/04/16 04:17:26;;;;;;;2.90;2.70;;;;;;;;;;5032392;28;20049;-80
2022/04/16 04:19:54;;;;;;;2.85;2.75;;;;;;;;;;5050080;28;20056;-80
2022/04/16 04:22:21;;;;;;;3.22;3.00;;;;;;;;;;5028866;28;20051;-80
2022/04/16 04:24:49;;;;;;;3.08;2.72;;;;;;;;;;5051102;28;20037;-80
2022/04/16 04:27:16;;;;;;;3.05;2.85;;;;;;;;;;5052833;28;20348;-80
2022/04/16 04:29:43;;;;;;;3.15;2.95;;;;;;;;;;5030527;28;20045;-80
2022/04/16 04:32:11;;;;;;;2.70;2.60;;;;;;;;;;5046780;28;20483;-80
2022/04/16 04:34:38;;;;;;;3.00;2.78;;;;;;;;;;5029740;28;20045;-80
2022/04/16 04:37:06;;;;;;;2.90;2.75;;;;;;;;;;5048329;28;20073;-80
2022/04/16 04:39:33;;;;;;;2.92;2.72;;;;;;;;;;5050673;28;20094;-80
2022/04/16 04:42:00;;;;;;;3.15;2.95;;;;;;;;;;5052981;28;20264;-81
2022/04/16 04:44:28;;;;;;;3.20;3.00;;;;;;;;;;5018170;28;20436;-80
2022/04/16 04:46:56;;;;;;;3.08;2.88;;;;;;;;;;5033919;28;20041;-80
2022/04/16 04:49:23;;;;;;;2.80;2.70;;;;;;;;;;5034206;28;20468;-80
2022/04/16 04:51:51;;;;;;;3.20;3.00;;;;;;;;;;5051231;28;20105;-80
2022/04/16 04:54:18;;;;;;;3.00;2.80;;;;;;;;;;5033077;28;20075;-80
2022/04/16 04:56:46;;;;;;;3.17;2.70;;;;;;;;;;5034414;28;20235;-80
2022/04/16 04:59:14;;;;;;;2.92;2.72;;;;;;;;;;5053336;28;20140;-80
2022/04/16 05:01:41;;;;;;;3.00;2.80;;;;;;;;;;5051538;28;20064;-80
2022/04/16 05:04:09;;;;;;;3.00;2.80;;;;;;;;;;5033528;28;20492;-81
2022/04/16 05:06:37;;;;;;;3.00;2.80;;;;;;;;;;5035879;28;20040;-81
2022/04/16 05:09:04;;;;;;;3.10;2.90;;;;;;;;;;5018965;28;20343;-80
2022/04/16 05:11:32;;;;;;;3.10;2.90;;;;;;;;;;5035000;28;20075;-80
2022/04/16 05:13:59;;;;;;;2.90;2.70;;;;;;;;;;5036591;28;20072;-81
2022/04/16 05:16:28;;;;;;;2.80;2.70;;;;;;;;;;5033431;28;20036;-81
2022/04/16 05:18:57;;;;;;;3.45;3.20;;;;;;;;;;5053386;28;20061;-80
2022/04/16 05:21:25;;;;;;;3.78;3.47;;;;;;;;;;5036948;28;20075;-80
2022/04/16 05:23:52;;;;;;;2.97;2.78;;;;;;;;;;5018079;28;20057;-82
2022/04/16 05:26:19;;;;;;;3.85;3.30;;;;;;;;;;5039303;28;20076;-81
2022/04/16 05:28:47;;;;;;;3.55;3.35;;;;;;;;;;5034280;28;20049;-80
2022/04/16 05:31:15;;;;;;;3.95;3.67;;;;;;;;;;5033669;28;20045;-83
2022/04/16 05:36:30;;;;;;;3.72;3.53;;;;;;;;;;5007607;28;20049;-82
2022/04/16 05:38:58;;;;;;;4.10;3.72;;;;;;;;;;4996393;28;20041;-79
2022/04/16 05:41:26;;;;;;;3.55;3.28;;;;;;;;;;5030298;28;20584;-78
2022/04/16 05:43:53;;;;;;;4.35;3.45;;;;;;;;;;5031087;28;20725;-82
2022/04/16 05:46:20;;;;;;;4.00;3.70;;;;;;;;;;5030191;28;20188;-79
2022/04/16 05:48:48;;;;;;;3.60;3.40;;;;;;;;;;5014444;28;20646;-78
2022/04/16 05:51:16;;;;;;;3.72;3.42;;;;;;;;;;5047543;28;20081;-78
2022/04/16 05:53:46;;;;;;;4.47;4.07;;;;;;;;;;5047484;28;20069;-80
2022/04/16 05:56:14;;;;;;;3.75;3.45;;;;;;;;;;5011826;28;20103;-80
2022/04/16 05:58:42;;;;;;;4.28;3.97;;;;;;;;;;5031277;28;20049;-79
2022/04/16 06:01:10;;;;;;;4.05;3.75;;;;;;;;;;5013304;28;20524;-80
2022/04/16 06:03:41;;;;;;;4.35;4.03;;;;;;;;;;5016337;28;20060;-81
2022/04/16 06:06:09;;;;;;;4.20;3.80;;;;;;;;;;5030240;28;20432;-81
2022/04/16 06:08:37;;;;;;;4.88;4.00;;;;;;;;;;5028381;28;20382;-81
2022/04/16 06:11:05;;;;;;;4.13;3.83;;;;;;;;;;4999044;28;20550;-80
2022/04/16 06:13:32;;;;;;;4.10;3.80;;;;;;;;;;5010169;28;20367;-78
2022/04/16 06:16:00;;;;;;;4.50;4.10;;;;;;;;;;5047627;28;20112;-81
2022/04/16 06:18:28;;;;;;;3.88;3.63;;;;;;;;;;5035934;28;20048;-81
2022/04/16 06:20:56;;;;;;;4.72;4.32;;;;;;;;;;5016487;28;20128;-81
2022/04/16 06:23:24;;;;;;;4.28;3.75;;;;;;;;;;5031409;28;20512;-81
2022/04/16 06:25:51;;;;;;;3.85;3.60;;;;;;;;;;5050036;28;20305;-81
2022/04/16 06:28:18;;;;;;;4.78;4.40;;;;;;;;;;5014758;28;20041;-80
2022/04/16 06:30:46;;;;;;;4.30;4.00;;;;;;;;;;5033973;28;20088;-81
2022/04/16 06:33:16;;;;;;;4.50;4.10;;;;;;;;;;5018540;28;20060;-80
2022/04/16 06:35:44;;;;;;;4.45;4.00;;;;;;;;;;5052235;28;20044;-81
2022/04/16 06:38:11;;;;;;;4.53;4.22;;;;;;;;;;5026714;28;20059;-81
2022/04/16 06:40:38;;;;;;;4.05;3.78;;;;;;;;;;5034348;28;20104;-80
2022/04/16 06:43:06;;;;;;;4.22;3.92;;;;;;;;;;5051261;28;20493;-80
2022/04/16 06:45:34;;;;;;;3.90;3.60;;;;;;;;;;5029724;28;20040;-80
2022/04/16 06:48:19;;;;;;;4.13;3.80;;;;;;;;;;5030820;28;20045;-80
2022/04/16 06:50:46;;;;;;;3.67;3.20;;;;;;;;;;5052148;28;20052;-81
2022/04/16 06:53:14;;;;;;;3.40;3.20;;;;;;;;;;5051755;28;20040;-80
2022/04/16 06:55:43;;;;;;;3.40;3.20;;;;;;;;;;5033847;28;20110;-81
2022/04/16 06:58:12;;;;;;;2.72;2.63;;;;;;;;;;5034679;28;20868;-81
2022/04/16 07:00:40;;;;;;;3.08;2.67;;;;;;;;;;5003176;28;20060;-81
2022/04/16 07:03:08;;;;;;;2.85;2.65;;;;;;;;;;5046477;28;20068;-80
2022/04/16 07:05:35;;;;;;;2.88;2.38;;;;;;;;;;5053288;28;20033;-81
2022/04/16 07:08:03;;;;;;;2.83;2.63;;;;;;;;;;5054610;28;20049;-81
2022/04/16 07:10:50;;;;;;;2.50;2.40;;;;;;;;;;4938539;28;20104;-81
2022/04/16 07:13:18;;;;;;;2.92;2.72;;;;;;;;;;4937975;29;20492;-81
2022/04/16 07:15:45;;;;;;;3.08;2.88;;;;;;;;;;4939944;28;20326;-81
2022/04/16 07:18:12;;;;;;;2.80;2.60;;;;;;;;;;4943288;29;20051;-81
2022/04/16 07:20:41;;;;;;;2.90;2.70;;;;;;;;;;4942815;28;20571;-81
2022/04/16 07:23:08;;;;;;;2.50;2.30;;;;;;;;;;5042715;28;20100;-81
2022/04/16 07:25:36;;;;;;;3.10;2.92;;;;;;;;;;5030402;28;20037;-81
2022/04/16 07:28:03;;;;;;;2.80;2.60;;;;;;;;;;5049612;28;20041;-79
2022/04/16 07:30:31;;;;;;;2.33;2.22;;;;;;;;;;5034665;28;20040;-80
2022/04/16 07:32:58;;;;;;;3.83;2.63;;;;;;;;;;5037211;28;20052;-80
2022/04/16 07:35:28;;;;;;;2.47;2.35;;;;;;;;;;5051836;28;20091;-80
2022/04/16 07:37:58;;;;;;;2.30;2.20;;;;;;;;;;4999718;28;20041;-80
2022/04/16 07:40:26;;;;;;;2.60;2.40;;;;;;;;;;5032201;28;20045;-80
2022/04/16 07:42:54;;;;;;;2.88;2.67;;;;;;;;;;5044314;28;20048;-80
2022/04/16 07:45:21;;;;;;;3.00;2.80;;;;;;;;;;5034846;28;20105;-80
2022/04/16 07:47:49;;;;;;;2.70;2.50;;;;;;;;;;5052883;28;20222;-81
2022/04/16 07:50:16;;;;;;;2.60;2.40;;;;;;;;;;5034981;28;20071;-80
2022/04/16 07:52:45;;;;;;;3.08;2.42;;;;;;;;;;5052344;28;20545;-80
2022/04/16 07:55:14;;;;;;;2.30;2.20;;;;;;;;;;5034204;28;20057;-81
2022/04/16 07:57:41;;;;;;;2.60;2.40;;;;;;;;;;5029640;28;20096;-80
2022/04/16 08:00:10;;;;;;;2.90;2.70;;;;;;;;;;5033842;28;20071;-80
2022/04/16 08:02:40;;;;;;;4.90;2.90;;;;;;;;;;5023381;28;20037;-80
2022/04/16 08:05:08;;;;;;;2.80;2.60;;;;;;;;;;5032517;28;20124;-80
2022/04/16 08:07:35;;;;;;;3.28;3.03;;;;;;;;;;5052103;28;20044;-80
2022/04/16 08:10:03;;;;;;;2.80;2.60;;;;;;;;;;5035329;28;20049;-80
2022/04/16 08:12:30;;;;;;;2.50;2.22;;;;;;;;;;5052293;28;20047;-80
2022/04/16 08:14:57;;;;;;;2.78;2.58;;;;;;;;;;5049178;28;20079;-80
2022/04/16 08:17:25;;;;;;;2.70;2.47;;;;;;;;;;5032051;28;20822;-80
2022/04/16 08:19:52;;;;;;;3.47;2.65;;;;;;;;;;5013203;28;20055;-81
2022/04/16 08:22:21;;;;;;;2.60;2.42;;;;;;;;;;5055749;28;20053;-81
2022/04/16 08:27:39;;;;;;;3.63;2.40;;;;;;;;;;5018801;28;20041;-81
2022/04/16 08:30:11;;;;;;;2.50;2.30;;;;;;;;;;5037088;28;20037;-80
2022/04/16 08:32:42;;;;;;;2.53;2.33;;;;;;;;;;5049068;28;20045;-80
2022/04/16 08:35:11;;;;;;;1.80;1.70;;;;;;;;;;5019708;28;20048;-80
2022/04/16 08:37:38;;;;;;;2.33;1.95;;;;;;;;;;5032168;28;20037;-81
2022/04/16 08:40:07;;;;;;;1.90;1.80;;;;;;;;;;5013144;28;20500;-81
2022/04/16 08:42:36;;;;;;;1.90;1.80;;;;;;;;;;5049395;28;20049;-80
2022/04/16 08:45:08;;;;;;;3.25;2.10;;;;;;;;;;5018518;28;20583;-81
2022/04/16 08:47:38;;;;;;;2.22;2.03;;;;;;;;;;5029092;28;20052;-81
2022/04/16 08:50:07;;;;;;;8.02;1.75;;;;;;;;;;5036459;28;20500;-80
2022/04/16 08:52:35;;;;;;;1.90;1.70;;;;;;;;;;5053845;28;20272;-80
2022/04/16 08:55:23;;;;;;;1.67;1.58;;;;;;;;;;5029742;28;20046;-81
2022/04/16 08:57:53;;;;;;;1.77;1.67;;;;;;;;;;5032684;28;20132;-80
2022/04/16 09:00:21;;;;;;;1.80;1.70;;;;;;;;;;5032721;28;20446;-80
2022/04/16 09:02:49;;;;;;;1.80;1.70;;;;;;;;;;5031861;28;20563;-81
2022/04/16 09:05:19;;;;;;;4.15;1.75;;;;;;;;;;5051857;28;20045;-81
2022/04/16 09:07:51;;;;;;;1.75;1.65;;;;;;;;;;5034118;28;20052;-81
2022/04/16 09:10:19;;;;;;;6.10;1.70;;;;;;;;;;5000540;28;20053;-80
2022/04/16 09:12:50;;;;;;;1.60;1.50;;;;;;;;;;5048899;28;20136;-80
2022/04/16 09:15:17;;;;;;;1.60;1.50;;;;;;;;;;5030666;28;20045;-80
2022/04/16 09:17:55;;;;;;;1.50;1.40;;;;;;;;;;5032195;28;20056;-80
2022/04/16 09:20:23;;;;;;;1.42;1.33;;;;;;;;;;5030186;28;20103;-79
2022/04/16 09:22:50;;;;;;;1.20;1.10;;;;;;;;;;5049182;28;20061;-80
2022/04/16 09:25:19;;;;;;;1.52;1.42;;;;;;;;;;5050305;28;20064;-80
2022/04/16 09:27:49;;;;;;;3.70;1.75;;;;;;;;;;5018988;28;20439;-80
2022/04/16 09:30:23;;;;;;;1.98;1.40;;;;;;;;;;5018751;28;20079;-79
2022/04/16 09:32:52;;;;;;;1.50;1.48;;;;;;;;;;5035364;28;20037;-80
2022/04/16 09:35:33;;;;;;;1.50;1.40;;;;;;;;;;5047973;28;20040;-81
2022/04/16 09:38:12;;;;;;;1.30;1.23;;;;;;;;;;5039465;28;20459;-80
2022/04/16 09:40:40;;;;;;;2.40;1.50;;;;;;;;;;5033056;28;20505;-81
2022/04/16 09:43:08;;;;;;;1.50;1.40;;;;;;;;;;5033485;28;20255;-81
2022/04/16 09:45:39;;;;;;;1.50;1.40;;;;;;;;;;5034838;28;20040;-81
2022/04/16 09:48:13;;;;;;;1.23;1.17;;;;;;;;;;5026717;28;20072;-81
2022/04/16 09:50:41;;;;;;;1.58;1.48;;;;;;;;;;5018537;28;20049;-81
2022/04/16 09:53:09;;;;;;;1.70;1.60;;;;;;;;;;5017626;28;20053;-80
2022/04/16 09:55:37;;;;;;;2.67;1.60;;;;;;;;;;5021724;28;20067;-80
2022/04/16 09:58:05;;;;;;;2.05;1.38;;;;;;;;;;5022410;28;20045;-81
2022/04/16 10:00:34;;;;;;;1.40;1.30;;;;;;;;;;5053186;28;20101;-80
2022/04/16 10:03:20;;;;;;;1.10;1.10;;;;;;;;;;5036053;28;20164;-80
2022/04/16 10:05:49;;;;;;;1.30;1.30;;;;;;;;;;5056316;28;20041;-80
2022/04/16 10:08:18;;;;;;;1.30;1.17;;;;;;;;;;5038511;28;20501;-80
2022/04/16 10:10:53;;;;;;;1.48;1.40;;;;;;;;;;5036453;28;20041;-81
2022/04/16 10:13:22;;;;;;;1.30;1.30;;;;;;;;;;5055669;28;20053;-80
2022/04/16 10:16:01;;;;;;;1.00;1.00;;;;;;;;;;5021096;28;20124;-80
2022/04/16 10:18:32;;;;;;;0.80;0.80;;;;;;;;;;5037263;28;20040;-80
2022/04/16 10:21:01;;;;;;;1.20;1.20;;;;;;;;;;5036182;28;20052;-80
2022/04/16 10:23:48;;;;;;;1.10;1.10;;;;;;;;;;5036860;28;20061;-80
2022/04/16 10:26:17;;;;;;;1.00;1.00;;;;;;;;;;5014711;28;20057;-81
2022/04/16 10:28:52;;;;;;;1.38;1.27;;;;;;;;;;5053271;28;20109;-81
2022/04/16 10:31:28;;;;;;;1.10;1.10;;;;;;;;;;5051835;28;20521;-80
2022/04/16 10:33:59;;;;;;;1.45;1.40;;;;;;;;;;5018170;28;20053;-80
2022/04/16 10:36:28;;;;;;;1.50;1.50;;;;;;;;;;5053508;28;20048;-80
2022/04/16 10:38:55;;;;;;;1.70;1.60;;;;;;;;;;5055825;28;20519;-81
2022/04/16 10:41:26;;;;;;;1.60;1.50;;;;;;;;;;5036568;28;20200;-80
2022/04/16 10:43:57;;;;;;;1.30;1.20;;;;;;;;;;5052590;28;20207;-80
2022/04/16 10:46:25;;;;;;;1.30;1.30;;;;;;;;;;5016783;28;20040;-79
2022/04/16 10:48:53;;;;;;;1.00;1.00;;;;;;;;;;5016639;28;20110;-80
2022/04/16 10:51:22;;;;;;;1.40;1.30;;;;;;;;;;5031488;28;20115;-81
2022/04/16 10:53:49;;;;;;;1.60;1.50;;;;;;;;;;5036060;28;20049;-81
2022/04/16 10:56:20;;;;;;;1.30;1.20;;;;;;;;;;5034308;28;20044;-82
2022/04/16 10:58:49;;;;;;;1.38;1.27;;;;;;;;;;5046065;28;20100;-81
2022/04/16 11:01:26;;;;;;;1.17;1.17;;;;;;;;;;5052023;28;20071;-81
2022/04/16 11:03:54;;;;;;;1.40;1.40;;;;;;;;;;5034324;28;20064;-81
2022/04/16 11:06:21;;;;;;;2.10;1.95;;;;;;;;;;5051255;28;20041;-81
2022/04/16 11:08:49;;;;;;;1.50;1.40;;;;;;;;;;5020639;28;20048;-81
2022/04/16 11:11:16;;;;;;;1.75;1.65;;;;;;;;;;5050291;28;20060;-81
2022/04/16 11:13:44;;;;;;;2.03;1.92;;;;;;;;;;5052558;28;20393;-81
2022/04/16 11:16:12;;;;;;;1.92;1.83;;;;;;;;;;5032245;28;20076;-81
2022/04/16 11:18:43;;;;;;;2.10;2.00;;;;;;;;;;5052488;28;20064;-80
2022/04/16 11:21:11;;;;;;;2.30;2.20;;;;;;;;;;5051369;28;20041;-82
2022/04/16 11:23:52;;;;;;;3.88;2.20;;;;;;;;;;5034343;28;20053;-81
2022/04/16 11:34:52;;;;;;;2.70;2.50;;;;;;;;;;5031392;28;20103;-82
2022/04/16 11:37:32;;;;;;;2.40;2.30;;;;;;;;;;5014297;28;20420;-79
2022/04/16 11:40:01;;;;;;;2.83;2.63;;;;;;;;;;5015083;28;20040;-78
2022/04/16 11:42:29;;;;;;;4.07;2.95;;;;;;;;;;5032169;28;20341;-82
2022/04/16 11:44:57;;;;;;;2.55;2.35;;;;;;;;;;5014206;28;20409;-80
2022/04/16 11:47:27;;;;;;;3.20;3.00;;;;;;;;;;5051299;28;20241;-79
2022/04/16 11:49:55;;;;;;;3.05;2.85;;;;;;;;;;5019283;28;20136;-81
2022/04/16 11:52:30;;;;;;;2.97;2.75;;;;;;;;;;5033476;28;20188;-80
2022/04/16 11:55:01;;;;;;;2.80;2.60;;;;;;;;;;5042986;28;20067;-80
2022/04/16 11:57:29;;;;;;;3.20;3.00;;;;;;;;;;5024700;28;20037;-79
2022/04/16 12:00:18;;;;;;;2.97;2.78;;;;;;;;;;5048406;28;20044;-80
2022/04/16 12:02:48;;;;;;;3.55;3.25;;;;;;;;;;5012104;28;20041;-79
2022/04/16 12:05:16;;;;;;;3.75;3.38;;;;;;;;;;5015988;28;20041;-80
2022/04/16 12:07:52;;;;;;;4.25;3.85;;;;;;;;;;5034902;28;20149;-80
2022/04/16 12:10:21;;;;;;;10.65;3.33;;;;;;;;;;5037139;28;20452;-80
2022/04/16 12:12:49;;;;;;;4.18;3.78;;;;;;;;;;5035615;28;20040;-80
2022/04/16 12:15:27;;;;;;;4.68;4.28;;;;;;;;;;5054271;28;20099;-80
2022/04/16 12:17:55;;;;;;;4.10;3.80;;;;;;;;;;5034824;28;20075;-79
2022/04/16 12:20:23;;;;;;;4.78;4.38;;;;;;;;;;5018257;28;20114;-80
2022/04/16 12:22:52;;;;;;;4.45;4.05;;;;;;;;;;5042319;28;20068;-79
2022/04/16 12:25:27;;;;;;;4.72;4.32;;;;;;;;;;5033904;28;20495;-79
2022/04/16 12:27:56;;;;;;;5.63;4.30;;;;;;;;;;5026043;28;20053;-81
2022/04/16 12:30:27;;;;;;;4.13;3.45;;;;;;;;;;5052689;28;20135;-81
2022/04/16 12:33:02;;;;;;;4.75;4.22;;;;;;;;;;5030542;28;20130;-80
2022/04/16 12:35:32;;;;;;;4.32;4.03;;;;;;;;;;5034597;28;20036;-78
2022/04/16 12:38:00;;;;;;;4.28;3.88;;;;;;;;;;5014652;28;20068;-79
2022/04/16 12:40:48;;;;;;;4.53;4.13;;;;;;;;;;5023594;28;20116;-80
2022/04/16 12:43:16;;;;;;;4.22;3.92;;;;;;;;;;5051544;28;20041;-80
2022/04/16 12:45:44;;;;;;;4.75;3.67;;;;;;;;;;5000714;28;20039;-81
2022/04/16 12:48:13;;;;;;;4.10;3.63;;;;;;;;;;5035090;28;20045;-80
2022/04/16 12:50:41;;;;;;;4.28;3.88;;;;;;;;;;5033679;28;20045;-81
2022/04/16 12:53:09;;;;;;;3.85;3.20;;;;;;;;;;5034319;28;20049;-81
2022/04/16 12:55:36;;;;;;;4.20;3.80;;;;;;;;;;5035991;28;20049;-80
2022/04/16 12:58:05;;;;;;;3.70;3.40;;;;;;;;;;5019502;28;20045;-81
2022/04/16 13:00:34;;;;;;;3.80;3.50;;;;;;;;;;5039645;28;20523;-80
2022/04/16 13:03:01;;;;;;;3.88;3.05;;;;;;;;;;5040724;28;20045;-80
2022/04/16 13:05:29;;;;;;;3.28;3.08;;;;;;;;;;5023530;28;20049;-79
2022/04/16 13:07:59;;;;;;;3.20;3.00;;;;;;;;;;5022101;28;20040;-80
2022/04/16 13:10:27;;;;;;;4.07;3.78;;;;;;;;;;5021176;28;20052;-81
2022/04/16 13:12:59;;;;;;;3.42;3.22;;;;;;;;;;5015865;28;20056;-79
2022/04/16 13:15:27;;;;;;;2.80;2.67;;;;;;;;;;5027317;28;20056;-80
2022/04/16 13:17:55;;;;;;;3.63;3.20;;;;;;;;;;5044157;28;20571;-80
2022/04/16 13:20:22;;;;;;;3.40;3.10;;;;;;;;;;5025146;28;20048;-81
2022/04/16 13:23:01;;;;;;;3.05;2.85;;;;;;;;;;5037514;28;20045;-81
2022/04/16 13:25:32;;;;;;;2.88;2.60;;;;;;;;;;5026506;28;20068;-80
2022/04/16 13:28:00;;;;;;;2.80;2.60;;;;;;;;;;5008294;28;20063;-81
2022/04/16 13:30:28;;;;;;;2.88;2.58;;;;;;;;;;5025336;28;20098;-80
2022/04/16 13:32:56;;;;;;;2.60;2.40;;;;;;;;;;5041169;28;20565;-81
2022/04/16 13:35:24;;;;;;;2.65;2.45;;;;;;;;;;5042478;28;20055;-82
2022/04/16 13:37:51;;;;;;;2.67;2.50;;;;;;;;;;5037997;28;20041;-80
2022/04/16 13:43:05;;;;;;;2.13;2.03;;;;;;;;;;5023917;28;20364;-79
2022/04/16 13:45:33;;;;;;;2.33;2.22;;;;;;;;;;5039068;28;20044;-79
2022/04/16 13:48:00;;;;;;;2.10;2.00;;;;;;;;;;5022618;28;20129;-79
2022/04/16 13:50:28;;;;;;;2.90;2.00;;;;;;;;;;5025266;28;20048;-81
2022/04/16 13:52:55;;;;;;;2.65;2.28;;;;;;;;;;5043504;28;20571;-79
2022/04/16 13:55:23;;;;;;;3.17;2.25;;;;;;;;;;5034189;28;20051;-82
2022/04/16 13:57:51;;;;;;;2.17;2.08;;;;;;;;;;5024593;28;20057;-81
2022/04/16 14:00:18;;;;;;;2.08;1.98;;;;;;;;;;5021487;28;20129;-79
2022/04/16 14:02:46;;;;;;;2.40;2.17;;;;;;;;;;5043895;28;20032;-79
2022/04/16 14:07:59;;;;;;;2.42;2.22;;;;;;;;;;5047418;28;20045;-79
2022/04/16 14:10:29;;;;;;;2.30;2.20;;;;;;;;;;5011487;28;20461;-80
2022/04/16 14:12:57;;;;;;;2.60;2.40;;;;;;;;;;5026837;28;20114;-80
2022/04/16 14:15:25;;;;;;;1.92;1.83;;;;;;;;;;5030894;28;20175;-81
2022/04/16 14:17:54;;;;;;;2.63;2.42;;;;;;;;;;5012471;28;20159;-79
2022/04/16 14:20:21;;;;;;;2.10;2.00;;;;;;;;;;5018860;28;20105;-81
2022/04/16 14:22:49;;;;;;;2.72;2.47;;;;;;;;;;5029224;28;20193;-79
2022/04/16 14:25:20;;;;;;;2.33;2.20;;;;;;;;;;5033217;28;20795;-79
2022/04/16 14:27:47;;;;;;;2.75;2.30;;;;;;;;;;5034474;28;20446;-79
2022/04/16 14:30:15;;;;;;;2.20;2.10;;;;;;;;;;5016803;28;20045;-81
2022/04/16 14:32:42;;;;;;;2.58;2.20;;;;;;;;;;5024950;28;20037;-78
2022/04/16 14:35:11;;;;;;;2.05;1.90;;;;;;;;;;5040732;28;20056;-79
2022/04/16 14:37:39;;;;;;;11.93;2.55;;;;;;;;;;5041894;28;20045;-79
2022/04/16 14:40:07;;;;;;;2.08;1.98;;;;;;;;;;4994819;28;20049;-79
2022/04/16 14:42:35;;;;;;;2.20;1.90;;;;;;;;;;5024860;28;20075;-80
2022/04/16 14:45:02;;;;;;;1.90;1.80;;;;;;;;;;4996331;28;20053;-80
2022/04/16 14:47:31;;;;;;;1.88;1.77;;;;;;;;;;5026685;28;20099;-81
2022/04/16 14:50:01;;;;;;;1.80;1.70;;;;;;;;;;5010495;28;20041;-80
2022/04/16 14:52:29;;;;;;;2.42;1.80;;;;;;;;;;5024973;28;20048;-77
2022/04/16 14:54:57;;;;;;;3.55;3.25;;;;;;;;;;5038755;28;20531;-78
2022/04/16 14:57:39;;;;;;;;;;;;;;;;;;5042020;28;20052;-78
2022/04/16 15:00:07;;;;;;;2.35;1.60;;;;;;;;;;5042571;28;20450;-78
2022/04/16 15:02:34;;;;;;;2.20;2.00;;;;;;;;;;5041731;28;20037;-79
2022/04/16 15:05:02;;;;;;;1.75;1.65;;;;;;;;;;5042596;28;20068;-78
2022/04/16 15:07:30;;;;;;;1.90;1.80;;;;;;;;;;5024935;28;20124;-79
2022/04/16 15:09:57;;;;;;;1.70;1.60;;;;;;;;;;5042880;28;20071;-78
2022/04/16 15:12:25;;;;;;;1.60;1.50;;;;;;;;;;5025378;28;20419;-79
2022/04/16 15:14:52;;;;;;;1.90;1.80;;;;;;;;;;5023852;28;20045;-79
2022/04/16 15:17:26;;;;;;;2.55;1.40;;;;;;;;;;5042070;28;20037;-79
2022/04/16 15:19:54;;;;;;;1.40;1.40;;;;;;;;;;5024253;28;20037;-77
2022/04/16 15:22:21;;;;;;;1.85;1.40;;;;;;;;;;5041346;28;20079;-78
2022/04/16 15:24:49;;;;;;;1.50;1.40;;;;;;;;;;5007661;28;20452;-79
2022/04/16 15:27:19;;;;;;;1.52;1.30;;;;;;;;;;5041982;28;20481;-79